createdAt,value
2022-10-10T00:01:52.056Z,2.50
2022-10-10T00:04:42.075Z,2.47
2022-10-10T00:07:30.388Z,2.97
2022-10-10T00:10:18.878Z,2.40
2022-10-10T00:13:07.944Z,2.15
2022-10-10T00:15:56.253Z,2.47
2022-10-10T00:18:44.597Z,2.53
2022-10-10T00:21:34.356Z,2.25
2022-10-10T00:24:22.763Z,2.22
2022-10-10T00:27:11.025Z,2.30
2022-10-10T00:29:59.540Z,2.50
2022-10-10T00:32:48.455Z,2.25
2022-10-10T00:35:36.984Z,2.63
2022-10-10T00:38:26.678Z,2.03
2022-10-10T00:41:15.024Z,2.58
2022-10-10T00:44:09.467Z,2.83
2022-10-10T00:46:57.776Z,2.15
2022-10-10T00:49:46.096Z,2.20
2022-10-10T00:52:34.401Z,2.45
2022-10-10T00:55:24.192Z,2.88
2022-10-10T00:58:13.597Z,2.38
2022-10-10T01:01:01.969Z,2.72
2022-10-10T01:03:50.420Z,2.63
2022-10-10T01:06:38.730Z,2.95
2022-10-10T01:09:28.204Z,3.03
2022-10-10T01:12:24.152Z,2.70
2022-10-10T01:15:19.285Z,2.40
2022-10-10T01:18:16.774Z,2.78
2022-10-10T01:21:13.212Z,2.60
2022-10-10T01:24:31.970Z,3.17
2022-10-10T01:27:31.830Z,2.30
2022-10-10T01:30:23.849Z,3.40
2022-10-10T01:33:17.016Z,2.67
2022-10-10T01:36:12.336Z,3.00
2022-10-10T01:39:08.141Z,3.63
2022-10-10T01:42:00.732Z,3.05
2022-10-10T01:44:53.869Z,3.13
2022-10-10T01:47:44.038Z,3.20
2022-10-10T01:50:36.901Z,2.67
2022-10-10T01:53:31.750Z,3.17
2022-10-10T01:56:35.395Z,2.72
2022-10-10T01:59:35.861Z,2.70
2022-10-10T02:02:30.264Z,3.70
2022-10-10T02:05:25.800Z,2.65
2022-10-10T02:08:18.867Z,2.97
2022-10-10T02:11:09.741Z,2.88
2022-10-10T02:14:04.173Z,3.33
2022-10-10T02:16:56.143Z,3.17
2022-10-10T02:19:48.365Z,3.03
2022-10-10T02:22:39.275Z,3.33
2022-10-10T02:25:30.100Z,3.20
2022-10-10T02:28:23.118Z,3.10
2022-10-10T02:31:16.153Z,3.72
2022-10-10T02:34:10.472Z,3.30
2022-10-10T02:37:02.634Z,3.40
2022-10-10T02:39:57.647Z,3.33
2022-10-10T02:42:48.329Z,3.30
2022-10-10T02:45:37.012Z,3.28
2022-10-10T02:48:25.333Z,3.35
2022-10-10T02:51:16.553Z,4.00
2022-10-10T02:56:54.816Z,3.30
2022-10-10T02:59:43.480Z,3.50
2022-10-10T03:02:32.013Z,3.55
2022-10-10T03:05:20.334Z,3.33
2022-10-10T03:08:11.566Z,3.50
2022-10-10T03:11:02.148Z,3.30
2022-10-10T03:13:51.778Z,3.20
2022-10-10T03:16:40.076Z,3.35
2022-10-10T03:19:28.412Z,3.92
2022-10-10T03:22:17.170Z,3.22
2022-10-10T03:25:06.210Z,3.60
2022-10-10T03:27:54.478Z,3.72
2022-10-10T03:30:44.511Z,3.55
2022-10-10T03:33:32.812Z,4.30
2022-10-10T03:36:22.141Z,3.28
2022-10-10T03:39:10.500Z,3.78
2022-10-10T03:41:58.795Z,4.10
2022-10-10T03:44:47.093Z,3.85
2022-10-10T03:47:36.804Z,4.00
2022-10-10T03:50:25.174Z,3.30
2022-10-10T03:53:13.650Z,3.58
2022-10-10T03:56:01.970Z,3.90
2022-10-10T03:58:50.266Z,3.42
2022-10-10T04:01:39.040Z,3.95
2022-10-10T04:04:28.745Z,3.80
2022-10-10T04:07:17.041Z,3.50
2022-10-10T04:10:07.782Z,3.80
2022-10-10T04:12:56.388Z,3.70
2022-10-10T04:15:44.716Z,3.50
2022-10-10T04:18:33.178Z,3.55
2022-10-10T04:21:22.869Z,3.70
2022-10-10T04:24:11.362Z,3.78
2022-10-10T04:26:59.704Z,4.22
2022-10-10T04:29:47.984Z,3.25
2022-10-10T04:32:36.272Z,3.88
2022-10-10T04:35:24.596Z,4.38
2022-10-10T04:38:14.256Z,3.85
2022-10-10T04:41:02.913Z,4.07
2022-10-10T04:43:51.243Z,4.38
2022-10-10T04:46:39.502Z,3.85
2022-10-10T04:49:27.919Z,4.82
2022-10-10T04:52:16.234Z,3.55
2022-10-10T04:55:06.670Z,4.10
2022-10-10T04:57:55.002Z,4.07
2022-10-10T05:00:43.373Z,3.53
2022-10-10T05:03:31.768Z,4.53
2022-10-10T05:06:20.455Z,4.30
2022-10-10T05:09:08.730Z,3.90
2022-10-10T05:11:58.409Z,4.20
2022-10-10T05:14:48.294Z,3.90
2022-10-10T05:17:36.740Z,4.25
2022-10-10T05:20:25.025Z,3.90
2022-10-10T05:23:13.613Z,3.78
2022-10-10T05:26:01.954Z,3.85
2022-10-10T05:28:51.564Z,3.95
2022-10-10T05:31:39.873Z,3.90
2022-10-10T05:34:28.512Z,4.53
2022-10-10T05:37:16.929Z,4.47
2022-10-10T05:40:06.449Z,4.63
2022-10-10T05:42:54.786Z,4.18
2022-10-10T05:45:44.426Z,3.95
2022-10-10T05:48:33.158Z,4.80
2022-10-10T05:51:22.011Z,4.50
2022-10-10T05:54:10.307Z,4.90
2022-10-10T05:56:58.555Z,4.90
2022-10-10T05:59:47.357Z,4.13
2022-10-10T06:02:37.843Z,4.60
2022-10-10T06:05:26.266Z,4.82
2022-10-10T06:08:14.535Z,4.53
2022-10-10T06:11:04.647Z,4.88
2022-10-10T06:13:54.324Z,4.47
2022-10-10T06:16:45.175Z,5.07
2022-10-10T06:19:35.066Z,4.63
2022-10-10T06:22:23.369Z,5.07
2022-10-10T06:25:29.116Z,5.00
2022-10-10T06:28:20.341Z,4.78
2022-10-10T06:31:11.586Z,5.00
2022-10-10T06:36:50.638Z,5.20
2022-10-10T06:39:39.026Z,5.32
2022-10-10T06:42:27.330Z,5.30
2022-10-10T06:45:15.724Z,4.25
2022-10-10T06:48:04.414Z,4.88
2022-10-10T06:51:01.045Z,5.38
2022-10-10T06:53:51.174Z,4.80
2022-10-10T06:56:39.433Z,4.90
2022-10-10T06:59:27.793Z,5.05
2022-10-10T07:02:16.113Z,4.63
2022-10-10T07:05:04.779Z,6.03
2022-10-10T07:07:54.181Z,4.90
2022-10-10T07:10:44.321Z,5.03
2022-10-10T07:13:32.894Z,4.88
2022-10-10T07:16:21.404Z,5.97
2022-10-10T07:19:10.125Z,5.88
2022-10-10T07:21:58.420Z,5.60
2022-10-10T07:24:47.381Z,5.72
2022-10-10T07:27:37.036Z,5.32
2022-10-10T07:30:25.578Z,4.93
2022-10-10T07:33:14.953Z,6.43
2022-10-10T07:36:03.320Z,5.50
2022-10-10T07:38:53.209Z,6.18
2022-10-10T07:41:41.512Z,5.93
2022-10-10T07:44:34.431Z,5.93
2022-10-10T07:47:23.112Z,6.25
2022-10-10T07:50:13.367Z,5.80
2022-10-10T07:53:01.675Z,5.47
2022-10-10T07:55:50.116Z,5.30
2022-10-10T07:58:38.715Z,5.45
2022-10-10T08:01:28.594Z,5.65
2022-10-10T08:04:17.014Z,5.40
2022-10-10T08:07:05.395Z,5.20
2022-10-10T08:09:53.737Z,4.95
2022-10-10T08:12:41.984Z,5.20
2022-10-10T08:15:33.179Z,5.05
2022-10-10T08:18:23.786Z,5.57
2022-10-10T08:21:13.975Z,5.53
2022-10-10T08:24:02.207Z,5.67
2022-10-10T08:26:51.044Z,5.40
2022-10-10T08:29:39.698Z,6.03
2022-10-10T08:32:28.023Z,5.55
2022-10-10T08:35:17.823Z,5.80
2022-10-10T08:38:06.491Z,5.53
2022-10-10T08:40:57.929Z,5.10
2022-10-10T08:43:50.650Z,4.80
2022-10-10T08:46:43.413Z,4.72
2022-10-10T08:49:35.870Z,4.85
2022-10-10T08:52:31.197Z,5.03
2022-10-10T08:55:24.298Z,5.35
2022-10-10T08:58:21.877Z,4.72
2022-10-10T09:01:15.525Z,5.18
2022-10-10T09:04:06.294Z,4.20
2022-10-10T09:07:06.260Z,4.28
2022-10-10T09:10:08.067Z,4.05
2022-10-10T09:13:05.581Z,4.40
2022-10-10T09:15:57.985Z,5.18
2022-10-10T09:18:59.540Z,3.20
2022-10-10T09:21:48.620Z,3.00
2022-10-10T09:24:43.494Z,3.00
2022-10-10T09:27:36.981Z,3.22
2022-10-10T09:30:25.474Z,3.67
2022-10-10T09:33:26.082Z,3.47
2022-10-10T09:36:19.906Z,2.90
2022-10-10T09:39:17.202Z,3.00
2022-10-10T09:42:10.961Z,3.38
2022-10-10T09:45:00.717Z,4.70
2022-10-10T09:47:52.458Z,3.38
2022-10-10T09:50:43.754Z,3.17
2022-10-10T09:53:32.323Z,3.30
2022-10-10T09:56:24.080Z,3.17
2022-10-10T09:59:36.956Z,3.15
2022-10-10T10:02:28.913Z,3.22
2022-10-10T10:05:25.001Z,1.88
2022-10-10T10:08:27.270Z,2.72
2022-10-10T10:11:28.471Z,2.15
2022-10-10T10:14:26.794Z,1.73
2022-10-10T10:17:18.862Z,2.30
2022-10-10T10:20:34.398Z,1.70
2022-10-10T10:23:32.245Z,1.63
2022-10-10T10:26:23.077Z,2.00
2022-10-10T10:29:29.950Z,1.80
2022-10-10T10:32:39.104Z,2.00
2022-10-10T10:35:32.479Z,1.92
2022-10-10T10:38:32.014Z,1.88
2022-10-10T10:41:28.340Z,2.00
2022-10-10T10:44:26.385Z,2.10
2022-10-10T10:47:33.252Z,2.30
2022-10-10T10:50:40.105Z,2.08
2022-10-10T10:53:38.829Z,2.08
2022-10-10T10:56:34.110Z,2.58
2022-10-10T11:00:22.181Z,2.47
2022-10-10T11:03:27.771Z,2.13
2022-10-10T11:06:41.990Z,1.83
2022-10-10T11:09:50.013Z,2.05
2022-10-10T11:12:51.326Z,1.85
2022-10-10T11:18:57.932Z,2.05
2022-10-10T11:21:53.940Z,1.88
2022-10-10T11:24:47.412Z,1.77
2022-10-10T11:27:41.741Z,1.70
2022-10-10T11:30:34.968Z,1.80
2022-10-10T11:33:28.375Z,1.67
2022-10-10T11:36:21.487Z,1.70
2022-10-10T11:39:19.864Z,1.83
2022-10-10T11:42:14.582Z,1.38
2022-10-10T11:45:08.045Z,1.50
2022-10-10T11:48:04.188Z,1.23
2022-10-10T11:50:57.806Z,1.50
2022-10-10T11:53:49.669Z,1.50
2022-10-10T11:56:43.851Z,1.70
2022-10-10T11:59:37.359Z,1.25
2022-10-10T12:02:31.552Z,1.40
2022-10-10T12:05:22.742Z,1.80
2022-10-10T12:08:18.669Z,1.45
2022-10-10T12:11:14.370Z,1.50
2022-10-10T12:14:08.749Z,1.70
2022-10-10T12:16:58.296Z,1.55
2022-10-10T12:19:49.329Z,1.27
2022-10-10T12:22:38.278Z,1.77
2022-10-10T12:25:38.118Z,1.48
2022-10-10T12:28:35.896Z,2.37
2022-10-10T12:31:33.564Z,1.77
2022-10-10T12:34:43.260Z,1.50
2022-10-10T12:37:32.870Z,1.50
2022-10-10T12:40:22.988Z,1.58
2022-10-10T12:43:26.047Z,1.35
2022-10-10T12:46:27.556Z,1.40
2022-10-10T12:49:22.586Z,1.73
2022-10-10T12:52:13.702Z,1.27
2022-10-10T12:55:08.313Z,1.40
2022-10-10T12:57:58.641Z,1.60
2022-10-10T13:00:49.116Z,1.92
2022-10-10T13:03:40.515Z,2.00
2022-10-10T13:06:36.201Z,1.67
2022-10-10T13:09:29.912Z,1.40
2022-10-10T13:12:27.311Z,1.63
2022-10-10T13:15:20.902Z,1.50
2022-10-10T13:18:09.230Z,1.73
2022-10-10T13:20:57.786Z,1.50
2022-10-10T13:26:58.779Z,1.75
2022-10-10T13:29:47.492Z,1.88
2022-10-10T13:32:37.389Z,2.38
2022-10-10T13:35:28.326Z,1.83
2022-10-10T13:38:19.068Z,2.17
2022-10-10T13:43:57.416Z,1.50
2022-10-10T13:46:45.694Z,1.83
2022-10-10T13:49:34.066Z,1.55
2022-10-10T13:52:24.168Z,1.92
2022-10-10T13:55:17.274Z,2.00
2022-10-10T13:58:11.112Z,1.77
2022-10-10T14:01:01.731Z,1.92
2022-10-10T14:03:52.866Z,2.33
2022-10-10T14:06:42.934Z,2.33
2022-10-10T14:09:35.373Z,1.58
2022-10-10T14:12:29.495Z,1.67
2022-10-10T14:15:44.125Z,1.83
2022-10-10T14:18:32.490Z,2.60
2022-10-10T14:21:21.105Z,2.00
2022-10-10T14:24:10.355Z,1.58
2022-10-10T14:26:58.793Z,2.10
2022-10-10T14:29:47.654Z,2.08
2022-10-10T14:32:37.328Z,1.63
2022-10-10T14:35:26.250Z,1.83
2022-10-10T14:38:15.402Z,2.28
2022-10-10T14:41:03.993Z,1.90
2022-10-10T14:43:52.426Z,1.70
2022-10-10T14:46:41.581Z,2.10
2022-10-10T14:49:31.207Z,1.63
2022-10-10T14:52:19.500Z,1.73
2022-10-10T14:55:09.242Z,2.40
2022-10-10T14:57:57.801Z,1.70
2022-10-10T15:00:46.693Z,1.48
2022-10-10T15:03:35.040Z,1.63
2022-10-10T15:06:24.652Z,1.77
2022-10-10T15:09:39.596Z,1.60
2022-10-10T15:12:21.853Z,1.40
2022-10-10T15:15:11.791Z,2.05
2022-10-10T15:18:00.735Z,1.55
2022-10-10T15:20:49.052Z,1.35
2022-10-10T15:23:38.685Z,2.08
2022-10-10T15:26:27.013Z,1.77
2022-10-10T15:29:15.329Z,1.80
2022-10-10T15:32:03.592Z,1.65
2022-10-10T15:34:52.724Z,1.48
2022-10-10T15:37:40.948Z,1.65
2022-10-10T15:40:30.664Z,1.60
2022-10-10T15:43:18.899Z,3.50
2022-10-10T15:46:09.954Z,14.60
2022-10-10T15:49:02.121Z,14.70
2022-10-10T15:51:50.423Z,8.93
2022-10-10T15:54:38.950Z,6.25
2022-10-10T15:57:28.878Z,3.42
2022-10-10T16:00:17.745Z,3.63
2022-10-10T16:03:05.998Z,2.15
2022-10-10T16:05:54.297Z,2.00
2022-10-10T16:08:43.055Z,1.38
2022-10-10T16:11:31.344Z,2.13
2022-10-10T16:14:21.015Z,1.80
2022-10-10T16:17:10.126Z,1.80
2022-10-10T16:19:58.372Z,1.90
2022-10-10T16:22:46.662Z,2.88
2022-10-10T16:25:34.949Z,1.88
2022-10-10T16:28:23.298Z,1.98
2022-10-10T16:31:15.209Z,2.40
2022-10-10T16:34:03.926Z,2.35
2022-10-10T16:36:52.233Z,2.60
2022-10-10T16:39:40.626Z,3.47
2022-10-10T16:42:28.943Z,2.20
2022-10-10T16:45:17.296Z,2.50
2022-10-10T16:48:07.368Z,2.10
2022-10-10T16:50:55.616Z,2.00
2022-10-10T16:53:45.250Z,2.30
2022-10-10T16:56:34.177Z,2.15
2022-10-10T16:59:22.506Z,1.92
2022-10-10T17:02:11.995Z,1.80
2022-10-10T17:05:01.724Z,1.90
2022-10-10T17:07:50.081Z,2.38
2022-10-10T17:10:38.388Z,2.10
2022-10-10T17:13:26.773Z,2.08
2022-10-10T17:19:26.939Z,2.05
2022-10-10T17:22:16.683Z,2.20
2022-10-10T17:25:05.590Z,1.88
2022-10-10T17:27:53.864Z,2.53
2022-10-10T17:30:44.090Z,2.33
2022-10-10T17:33:32.422Z,2.38
2022-10-10T17:36:22.830Z,2.28
2022-10-10T17:39:12.420Z,2.75
2022-10-10T17:42:01.135Z,2.67
2022-10-10T17:44:53.969Z,3.00
2022-10-10T17:47:44.270Z,2.08
2022-10-10T17:50:35.256Z,2.50
2022-10-10T17:53:23.901Z,2.85
2022-10-10T17:56:16.617Z,2.50
2022-10-10T17:59:06.692Z,2.83
2022-10-10T18:01:55.058Z,2.42
2022-10-10T18:04:43.344Z,2.30
2022-10-10T18:07:31.649Z,2.40
2022-10-10T18:10:20.153Z,2.63
2022-10-10T18:13:09.936Z,1.92
2022-10-10T18:16:07.447Z,2.70
2022-10-10T18:18:55.913Z,2.78
2022-10-10T18:21:44.209Z,2.58
2022-10-10T18:24:32.575Z,2.65
2022-10-10T18:27:21.238Z,2.05
2022-10-10T18:30:11.922Z,2.13
2022-10-10T18:33:00.196Z,2.17
2022-10-10T18:35:48.442Z,3.38
2022-10-10T18:38:37.656Z,2.88
2022-10-10T18:41:30.409Z,2.90
2022-10-10T18:44:20.129Z,2.88
2022-10-10T18:47:10.037Z,3.33
2022-10-10T18:49:58.359Z,3.85
2022-10-10T18:52:47.730Z,4.65
2022-10-10T18:55:37.430Z,6.32
2022-10-10T18:58:25.649Z,6.80
2022-10-10T19:01:19.897Z,7.32
2022-10-10T19:04:12.562Z,6.45
2022-10-10T19:07:02.159Z,6.35
2022-10-10T19:09:50.646Z,6.30
2022-10-10T19:12:42.874Z,6.30
2022-10-10T19:15:34.841Z,3.60
2022-10-10T19:18:23.992Z,2.97
2022-10-10T19:21:15.098Z,2.70
2022-10-10T19:24:06.126Z,2.97
2022-10-10T19:26:57.268Z,2.45
2022-10-10T19:29:45.527Z,2.92
2022-10-10T19:32:33.896Z,2.58
2022-10-10T19:35:22.213Z,2.85
2022-10-10T19:38:12.382Z,2.13
2022-10-10T19:41:01.279Z,2.38
2022-10-10T19:43:52.066Z,2.20
2022-10-10T19:46:40.482Z,3.33
2022-10-10T19:49:28.735Z,2.45
2022-10-10T19:52:17.022Z,2.53
2022-10-10T19:55:07.028Z,2.40
2022-10-10T19:57:55.312Z,2.70
2022-10-10T20:00:43.597Z,2.35
2022-10-10T20:03:32.703Z,2.25
2022-10-10T20:06:22.018Z,2.58
2022-10-10T20:09:11.270Z,2.53
2022-10-10T20:12:00.973Z,2.38
2022-10-10T20:14:49.238Z,2.67
2022-10-10T20:17:37.588Z,3.10
2022-10-10T20:20:25.846Z,2.80
2022-10-10T20:23:14.293Z,3.08
2022-10-10T20:26:02.842Z,3.00
2022-10-10T20:28:53.404Z,3.20
2022-10-10T20:31:41.748Z,3.13
2022-10-10T20:34:30.102Z,3.42
2022-10-10T20:37:18.438Z,3.72
2022-10-10T20:40:07.875Z,4.78
2022-10-10T20:42:56.248Z,4.70
2022-10-10T20:45:45.838Z,4.50
2022-10-10T20:48:34.403Z,4.47
2022-10-10T20:51:22.821Z,4.60
2022-10-10T20:54:12.327Z,5.28
2022-10-10T20:57:00.590Z,5.20
2022-10-10T20:59:48.868Z,5.40
2022-10-10T21:02:38.491Z,5.68
2022-10-10T21:05:26.866Z,6.10
2022-10-10T21:08:15.246Z,6.75
2022-10-10T21:11:06.332Z,7.18
2022-10-10T21:13:57.256Z,7.55
2022-10-10T21:19:35.005Z,7.93
2022-10-10T21:22:23.659Z,7.95
2022-10-10T21:25:13.218Z,8.27
2022-10-10T21:28:01.529Z,7.97
2022-10-10T21:30:50.562Z,7.78
2022-10-10T21:33:38.851Z,8.35
2022-10-10T21:36:28.565Z,8.18
2022-10-10T21:39:16.862Z,9.50
2022-10-10T21:42:05.303Z,9.02
2022-10-10T21:44:53.558Z,9.32
2022-10-10T21:47:43.109Z,8.77
2022-10-10T21:50:31.584Z,8.00
2022-10-10T21:53:21.241Z,8.10
2022-10-10T21:56:10.949Z,6.45
2022-10-10T21:59:01.479Z,5.45
2022-10-10T22:01:50.014Z,5.00
2022-10-10T22:04:38.321Z,4.20
2022-10-10T22:07:26.684Z,4.00
2022-10-10T22:10:19.639Z,3.30
2022-10-10T22:13:07.916Z,2.65
2022-10-10T22:15:56.475Z,3.00
2022-10-10T22:18:45.630Z,2.33
2022-10-10T22:21:35.100Z,2.40
2022-10-10T22:24:23.470Z,2.20
2022-10-10T22:27:13.081Z,2.40
2022-10-10T22:30:01.482Z,2.05
2022-10-10T22:32:49.739Z,1.88
2022-10-10T22:35:38.131Z,2.20
2022-10-10T22:38:26.568Z,1.85
2022-10-10T22:41:15.152Z,1.92
2022-10-10T22:44:05.469Z,1.85
2022-10-10T22:46:53.760Z,2.28
2022-10-10T22:49:42.070Z,2.10
2022-10-10T22:52:30.358Z,2.00
2022-10-10T22:55:19.105Z,2.83
2022-10-10T22:58:07.429Z,1.90
2022-10-10T23:00:57.169Z,2.10
2022-10-10T23:03:45.792Z,2.28
2022-10-10T23:06:34.066Z,2.38
2022-10-10T23:09:22.335Z,2.13
2022-10-10T23:12:10.707Z,1.80
2022-10-10T23:14:58.976Z,2.45
2022-10-10T23:17:48.604Z,1.63
2022-10-10T23:20:36.896Z,2.20
2022-10-10T23:23:25.699Z,1.90
2022-10-10T23:26:14.701Z,2.00
2022-10-10T23:29:03.093Z,1.65
2022-10-10T23:31:51.343Z,1.83
2022-10-10T23:34:40.961Z,2.03
2022-10-10T23:37:30.213Z,2.95
2022-10-10T23:40:18.781Z,2.10
2022-10-10T23:43:07.430Z,2.88
2022-10-10T23:45:55.746Z,2.33
2022-10-10T23:48:44.057Z,2.08
2022-10-10T23:51:34.818Z,2.50
2022-10-10T23:54:23.124Z,2.17
2022-10-10T23:57:11.375Z,2.40
